sensor_id;sensor_type;location;lat;lon;timestamp;pressure;altitude;pressure_sealevel;temperature;humidity
65557;BME280;52200;53.490;14.376;2023-05-22T00:02:15;101824.75;;;15.76;74.24
65557;BME280;52200;53.490;14.376;2023-05-22T00:04:41;101821.63;;;15.66;75.07
65557;BME280;52200;53.490;14.376;2023-05-22T00:07:06;101822.50;;;15.65;75.48
65557;BME280;52200;53.490;14.376;2023-05-22T00:09:31;101825.53;;;15.50;75.61
65557;BME280;52200;53.490;14.376;2023-05-22T00:11:57;101820.09;;;15.32;76.15
65557;BME280;52200;53.490;14.376;2023-05-22T00:14:22;101816.09;;;15.22;76.60
65557;BME280;52200;53.490;14.376;2023-05-22T00:16:48;101819.63;;;15.18;77.16
65557;BME280;52200;53.490;14.376;2023-05-22T00:19:14;101824.91;;;15.11;77.33
65557;BME280;52200;53.490;14.376;2023-05-22T00:21:43;101831.72;;;15.12;77.02
65557;BME280;52200;53.490;14.376;2023-05-22T00:24:09;101830.09;;;15.10;76.67
65557;BME280;52200;53.490;14.376;2023-05-22T00:26:35;101823.41;;;15.04;77.22
65557;BME280;52200;53.490;14.376;2023-05-22T00:29:00;101819.47;;;14.92;77.47
65557;BME280;52200;53.490;14.376;2023-05-22T00:31:26;101823.03;;;14.87;78.14
65557;BME280;52200;53.490;14.376;2023-05-22T00:33:51;101817.28;;;14.78;78.42
65557;BME280;52200;53.490;14.376;2023-05-22T00:36:17;101819.06;;;14.76;79.35
65557;BME280;52200;53.490;14.376;2023-05-22T00:38:43;101814.09;;;14.70;79.18
65557;BME280;52200;53.490;14.376;2023-05-22T00:41:08;101817.59;;;14.66;79.82
65557;BME280;52200;53.490;14.376;2023-05-22T00:43:34;101811.09;;;14.52;79.81
65557;BME280;52200;53.490;14.376;2023-05-22T00:46:00;101810.22;;;14.54;80.45
65557;BME280;52200;53.490;14.376;2023-05-22T00:48:25;101805.97;;;14.52;80.11
65557;BME280;52200;53.490;14.376;2023-05-22T00:50:53;101807.78;;;14.49;80.06
65557;BME280;52200;53.490;14.376;2023-05-22T00:53:20;101806.06;;;14.49;80.40
65557;BME280;52200;53.490;14.376;2023-05-22T00:55:46;101802.75;;;14.46;80.19
65557;BME280;52200;53.490;14.376;2023-05-22T00:58:14;101807.00;;;14.45;80.71
65557;BME280;52200;53.490;14.376;2023-05-22T01:00:41;101799.50;;;14.39;80.43
65557;BME280;52200;53.490;14.376;2023-05-22T01:03:08;101808.22;;;14.32;80.37
65557;BME280;52200;53.490;14.376;2023-05-22T01:05:35;101804.84;;;14.30;79.83
65557;BME280;52200;53.490;14.376;2023-05-22T01:08:03;101803.22;;;14.27;79.66
65557;BME280;52200;53.490;14.376;2023-05-22T01:10:29;101803.44;;;14.18;80.32
65557;BME280;52200;53.490;14.376;2023-05-22T01:13:13;101807.00;;;14.12;79.84
65557;BME280;52200;53.490;14.376;2023-05-22T01:15:48;101808.72;;;14.10;80.81
65557;BME280;52200;53.490;14.376;2023-05-22T01:21:18;101809.84;;;14.00;80.52
65557;BME280;52200;53.490;14.376;2023-05-22T01:32:42;101822.66;;;13.59;81.25
65557;BME280;52200;53.490;14.376;2023-05-22T01:35:11;101825.41;;;13.50;80.94
65557;BME280;52200;53.490;14.376;2023-05-22T01:37:41;101822.88;;;13.48;80.97
65557;BME280;52200;53.490;14.376;2023-05-22T01:40:07;101822.19;;;13.42;80.60
65557;BME280;52200;53.490;14.376;2023-05-22T01:42:33;101818.88;;;13.35;81.40
65557;BME280;52200;53.490;14.376;2023-05-22T01:44:59;101824.94;;;13.31;81.92
65557;BME280;52200;53.490;14.376;2023-05-22T01:47:24;101820.94;;;13.17;81.80
65557;BME280;52200;53.490;14.376;2023-05-22T01:49:50;101824.44;;;13.13;82.10
65557;BME280;52200;53.490;14.376;2023-05-22T01:53:01;101822.75;;;13.12;82.66
65557;BME280;52200;53.490;14.376;2023-05-22T01:55:45;101822.78;;;13.09;81.80
65557;BME280;52200;53.490;14.376;2023-05-22T01:58:38;101819.56;;;13.01;82.38
65557;BME280;52200;53.490;14.376;2023-05-22T02:01:07;101811.28;;;12.89;82.08
65557;BME280;52200;53.490;14.376;2023-05-22T02:03:35;101814.75;;;12.85;82.74
65557;BME280;52200;53.490;14.376;2023-05-22T02:06:04;101808.69;;;12.91;81.86
65557;BME280;52200;53.490;14.376;2023-05-22T02:08:31;101814.00;;;12.80;83.07
65557;BME280;52200;53.490;14.376;2023-05-22T02:10:58;101816.06;;;12.60;83.64
65557;BME280;52200;53.490;14.376;2023-05-22T02:13:25;101819.59;;;12.51;84.47
65557;BME280;52200;53.490;14.376;2023-05-22T02:15:50;101814.69;;;12.41;84.34
65557;BME280;52200;53.490;14.376;2023-05-22T02:18:16;101811.88;;;12.55;84.58
65557;BME280;52200;53.490;14.376;2023-05-22T02:20:42;101812.81;;;12.51;84.36
65557;BME280;52200;53.490;14.376;2023-05-22T02:23:07;101807.97;;;12.36;84.86
65557;BME280;52200;53.490;14.376;2023-05-22T02:25:33;101812.06;;;12.45;84.12
65557;BME280;52200;53.490;14.376;2023-05-22T02:27:58;101811.44;;;12.32;84.48
65557;BME280;52200;53.490;14.376;2023-05-22T02:30:24;101806.31;;;12.33;84.21
65557;BME280;52200;53.490;14.376;2023-05-22T02:32:49;101810.53;;;12.34;84.56
65557;BME280;52200;53.490;14.376;2023-05-22T02:35:15;101808.81;;;12.35;84.80
65557;BME280;52200;53.490;14.376;2023-05-22T02:37:40;101801.19;;;12.35;84.01
65557;BME280;52200;53.490;14.376;2023-05-22T02:40:07;101800.41;;;12.30;84.59
65557;BME280;52200;53.490;14.376;2023-05-22T02:42:34;101801.44;;;12.19;84.85
65557;BME280;52200;53.490;14.376;2023-05-22T02:45:00;101800.63;;;12.17;84.14
65557;BME280;52200;53.490;14.376;2023-05-22T02:47:25;101798.78;;;12.27;84.85
65557;BME280;52200;53.490;14.376;2023-05-22T02:49:51;101786.88;;;12.28;84.11
65557;BME280;52200;53.490;14.376;2023-05-22T02:52:16;101796.34;;;12.19;84.76
65557;BME280;52200;53.490;14.376;2023-05-22T02:54:42;101792.13;;;12.18;84.71
65557;BME280;52200;53.490;14.376;2023-05-22T02:57:07;101785.41;;;12.14;84.39
65557;BME280;52200;53.490;14.376;2023-05-22T02:59:33;101795.50;;;12.20;84.08
65557;BME280;52200;53.490;14.376;2023-05-22T03:02:01;101791.44;;;12.07;84.83
65557;BME280;52200;53.490;14.376;2023-05-22T03:04:26;101787.09;;;12.15;84.63
65557;BME280;52200;53.490;14.376;2023-05-22T03:06:54;101788.59;;;12.25;85.14
65557;BME280;52200;53.490;14.376;2023-05-22T03:09:19;101793.59;;;12.32;83.65
65557;BME280;52200;53.490;14.376;2023-05-22T03:11:45;101789.38;;;12.31;83.83
65557;BME280;52200;53.490;14.376;2023-05-22T03:14:10;101781.69;;;12.34;83.33
65557;BME280;52200;53.490;14.376;2023-05-22T03:16:35;101775.00;;;12.27;84.07
65557;BME280;52200;53.490;14.376;2023-05-22T03:19:12;101778.22;;;12.38;83.54
65557;BME280;52200;53.490;14.376;2023-05-22T03:21:38;101773.00;;;12.44;83.27
65557;BME280;52200;53.490;14.376;2023-05-22T03:24:04;101785.69;;;12.49;83.17
65557;BME280;52200;53.490;14.376;2023-05-22T03:26:30;101776.28;;;12.52;82.66
65557;BME280;52200;53.490;14.376;2023-05-22T03:28:56;101773.56;;;12.60;81.99
65557;BME280;52200;53.490;14.376;2023-05-22T03:31:28;101769.19;;;12.67;82.54
65557;BME280;52200;53.490;14.376;2023-05-22T03:33:55;101771.66;;;12.71;81.67
65557;BME280;52200;53.490;14.376;2023-05-22T03:36:21;101777.44;;;12.81;81.78
65557;BME280;52200;53.490;14.376;2023-05-22T03:38:47;101775.75;;;12.80;81.75
65557;BME280;52200;53.490;14.376;2023-05-22T03:41:13;101775.50;;;12.93;81.28
65557;BME280;52200;53.490;14.376;2023-05-22T03:43:38;101779.38;;;13.12;81.37
65557;BME280;52200;53.490;14.376;2023-05-22T03:46:03;101790.31;;;13.17;80.78
65557;BME280;52200;53.490;14.376;2023-05-22T03:48:29;101780.63;;;13.33;80.54
65557;BME280;52200;53.490;14.376;2023-05-22T03:50:55;101784.59;;;13.48;80.02
65557;BME280;52200;53.490;14.376;2023-05-22T03:53:21;101786.78;;;13.65;79.73
65557;BME280;52200;53.490;14.376;2023-05-22T03:55:46;101781.44;;;13.76;79.90
65557;BME280;52200;53.490;14.376;2023-05-22T03:58:11;101784.53;;;13.89;79.89
65557;BME280;52200;53.490;14.376;2023-05-22T04:00:37;101777.41;;;14.03;79.25
65557;BME280;52200;53.490;14.376;2023-05-22T04:03:03;101781.41;;;14.14;79.61
65557;BME280;52200;53.490;14.376;2023-05-22T04:05:28;101779.28;;;14.30;78.62
65557;BME280;52200;53.490;14.376;2023-05-22T04:07:56;101783.28;;;14.42;78.80
65557;BME280;52200;53.490;14.376;2023-05-22T04:10:21;101783.72;;;14.58;78.75
65557;BME280;52200;53.490;14.376;2023-05-22T04:12:50;101776.97;;;14.54;78.52
65557;BME280;52200;53.490;14.376;2023-05-22T04:15:16;101778.13;;;14.76;77.92
65557;BME280;52200;53.490;14.376;2023-05-22T04:17:41;101782.06;;;14.88;77.94
65557;BME280;52200;53.490;14.376;2023-05-22T04:20:07;101779.44;;;14.90;77.46
65557;BME280;52200;53.490;14.376;2023-05-22T04:22:33;101778.03;;;15.09;76.46
65557;BME280;52200;53.490;14.376;2023-05-22T04:24:58;101777.44;;;15.29;76.34
65557;BME280;52200;53.490;14.376;2023-05-22T04:27:24;101779.44;;;15.50;75.83
65557;BME280;52200;53.490;14.376;2023-05-22T04:29:50;101782.31;;;15.67;76.06
65557;BME280;52200;53.490;14.376;2023-05-22T04:32:16;101778.31;;;15.87;74.94
65557;BME280;52200;53.490;14.376;2023-05-22T04:34:49;101783.09;;;15.98;74.75
65557;BME280;52200;53.490;14.376;2023-05-22T04:37:16;101782.25;;;16.24;74.20
65557;BME280;52200;53.490;14.376;2023-05-22T04:39:43;101783.38;;;16.40;73.46
65557;BME280;52200;53.490;14.376;2023-05-22T04:42:11;101780.88;;;16.39;72.36
65557;BME280;52200;53.490;14.376;2023-05-22T04:44:39;101774.16;;;16.60;72.09
65557;BME280;52200;53.490;14.376;2023-05-22T04:47:04;101766.69;;;16.77;72.51
65557;BME280;52200;53.490;14.376;2023-05-22T04:49:31;101775.59;;;16.92;70.61
65557;BME280;52200;53.490;14.376;2023-05-22T04:51:57;101770.91;;;17.04;71.21
65557;BME280;52200;53.490;14.376;2023-05-22T04:54:23;101774.84;;;17.13;71.05
65557;BME280;52200;53.490;14.376;2023-05-22T04:56:49;101771.97;;;17.22;71.40
65557;BME280;52200;53.490;14.376;2023-05-22T04:59:16;101777.34;;;17.38;70.73
65557;BME280;52200;53.490;14.376;2023-05-22T05:01:43;101769.22;;;17.49;70.82
65557;BME280;52200;53.490;14.376;2023-05-22T05:04:10;101776.38;;;17.63;71.09
65557;BME280;52200;53.490;14.376;2023-05-22T05:06:35;101770.03;;;17.71;70.08
65557;BME280;52200;53.490;14.376;2023-05-22T05:09:02;101769.44;;;17.87;69.42
65557;BME280;52200;53.490;14.376;2023-05-22T05:11:28;101768.97;;;17.99;69.54
65557;BME280;52200;53.490;14.376;2023-05-22T05:13:54;101779.72;;;17.87;69.83
65557;BME280;52200;53.490;14.376;2023-05-22T05:16:19;101773.47;;;17.93;69.54
65557;BME280;52200;53.490;14.376;2023-05-22T05:18:45;101770.81;;;17.96;70.00
65557;BME280;52200;53.490;14.376;2023-05-22T05:21:11;101772.81;;;18.10;69.59
65557;BME280;52200;53.490;14.376;2023-05-22T05:23:36;101773.19;;;18.21;69.15
65557;BME280;52200;53.490;14.376;2023-05-22T05:26:01;101768.69;;;18.47;68.76
65557;BME280;52200;53.490;14.376;2023-05-22T05:28:27;101767.31;;;18.59;69.09
65557;BME280;52200;53.490;14.376;2023-05-22T05:30:52;101770.44;;;18.84;68.05
65557;BME280;52200;53.490;14.376;2023-05-22T05:33:18;101770.97;;;19.12;66.77
65557;BME280;52200;53.490;14.376;2023-05-22T05:35:44;101770.97;;;19.31;66.94
65557;BME280;52200;53.490;14.376;2023-05-22T05:38:09;101767.81;;;19.43;65.29
65557;BME280;52200;53.490;14.376;2023-05-22T05:40:35;101768.31;;;19.32;65.68
65557;BME280;52200;53.490;14.376;2023-05-22T05:43:00;101763.19;;;19.13;63.74
65557;BME280;52200;53.490;14.376;2023-05-22T05:45:26;101767.81;;;19.24;62.22
65557;BME280;52200;53.490;14.376;2023-05-22T05:47:51;101771.16;;;19.26;64.02
65557;BME280;52200;53.490;14.376;2023-05-22T05:50:17;101770.09;;;19.30;62.39
65557;BME280;52200;53.490;14.376;2023-05-22T05:52:42;101764.38;;;19.43;62.86
65557;BME280;52200;53.490;14.376;2023-05-22T05:55:08;101765.94;;;19.82;60.00
65557;BME280;52200;53.490;14.376;2023-05-22T05:57:34;101767.63;;;20.18;59.14
65557;BME280;52200;53.490;14.376;2023-05-22T06:00:00;101767.16;;;20.94;56.45
65557;BME280;52200;53.490;14.376;2023-05-22T06:02:25;101755.84;;;22.91;53.50
65557;BME280;52200;53.490;14.376;2023-05-22T06:04:51;101753.69;;;24.82;51.14
65557;BME280;52200;53.490;14.376;2023-05-22T06:07:18;101753.59;;;25.07;47.92
65557;BME280;52200;53.490;14.376;2023-05-22T06:09:43;101755.44;;;25.42;46.61
65557;BME280;52200;53.490;14.376;2023-05-22T06:12:09;101757.91;;;25.91;45.77
65557;BME280;52200;53.490;14.376;2023-05-22T06:14:37;101753.66;;;24.31;47.38
65557;BME280;52200;53.490;14.376;2023-05-22T06:17:05;101742.88;;;24.88;47.13
65557;BME280;52200;53.490;14.376;2023-05-22T06:19:31;101747.13;;;25.37;46.43
65557;BME280;52200;53.490;14.376;2023-05-22T06:21:56;101742.06;;;24.74;47.34
65557;BME280;52200;53.490;14.376;2023-05-22T06:24:21;101744.81;;;23.82;47.94
65557;BME280;52200;53.490;14.376;2023-05-22T06:26:47;101744.13;;;22.71;50.33
65557;BME280;52200;53.490;14.376;2023-05-22T06:29:13;101743.00;;;22.17;51.32
65557;BME280;52200;53.490;14.376;2023-05-22T06:31:38;101745.06;;;21.51;53.07
65557;BME280;52200;53.490;14.376;2023-05-22T06:34:04;101749.97;;;20.93;53.61
65557;BME280;52200;53.490;14.376;2023-05-22T06:36:30;101745.69;;;20.60;56.70
65557;BME280;52200;53.490;14.376;2023-05-22T06:38:55;101753.53;;;20.08;56.73
65557;BME280;52200;53.490;14.376;2023-05-22T06:41:21;101747.16;;;20.15;57.00
65557;BME280;52200;53.490;14.376;2023-05-22T06:43:47;101749.66;;;19.81;57.49
65557;BME280;52200;53.490;14.376;2023-05-22T06:46:12;101748.50;;;20.22;57.66
65557;BME280;52200;53.490;14.376;2023-05-22T06:48:37;101745.34;;;20.51;58.13
65557;BME280;52200;53.490;14.376;2023-05-22T06:51:03;101747.13;;;20.82;57.53
65557;BME280;52200;53.490;14.376;2023-05-22T06:53:28;101750.63;;;20.81;56.82
65557;BME280;52200;53.490;14.376;2023-05-22T06:55:54;101749.00;;;20.62;56.57
65557;BME280;52200;53.490;14.376;2023-05-22T06:58:20;101739.97;;;20.71;56.44
65557;BME280;52200;53.490;14.376;2023-05-22T07:00:45;101751.25;;;20.69;56.22
65557;BME280;52200;53.490;14.376;2023-05-22T07:03:11;101748.47;;;20.89;55.81
65557;BME280;52200;53.490;14.376;2023-05-22T07:05:36;101741.81;;;20.85;58.01
65557;BME280;52200;53.490;14.376;2023-05-22T07:08:02;101747.09;;;21.46;58.25
65557;BME280;52200;53.490;14.376;2023-05-22T07:10:27;101743.66;;;21.92;55.71
65557;BME280;52200;53.490;14.376;2023-05-22T07:12:53;101742.25;;;22.01;54.77
65557;BME280;52200;53.490;14.376;2023-05-22T07:15:18;101743.38;;;21.97;54.53
65557;BME280;52200;53.490;14.376;2023-05-22T07:17:44;101744.88;;;22.15;54.60
65557;BME280;52200;53.490;14.376;2023-05-22T07:20:10;101745.97;;;22.26;54.92
65557;BME280;52200;53.490;14.376;2023-05-22T07:22:36;101741.16;;;22.19;56.60
65557;BME280;52200;53.490;14.376;2023-05-22T07:25:02;101743.78;;;22.34;53.14
65557;BME280;52200;53.490;14.376;2023-05-22T07:27:28;101733.78;;;22.28;53.80
65557;BME280;52200;53.490;14.376;2023-05-22T07:29:54;101737.69;;;22.49;55.31
65557;BME280;52200;53.490;14.376;2023-05-22T07:32:19;101738.91;;;22.85;52.90
65557;BME280;52200;53.490;14.376;2023-05-22T07:34:45;101738.38;;;23.08;51.26
65557;BME280;52200;53.490;14.376;2023-05-22T07:37:11;101732.56;;;23.04;50.82
65557;BME280;52200;53.490;14.376;2023-05-22T07:39:37;101734.75;;;23.10;52.00
65557;BME280;52200;53.490;14.376;2023-05-22T07:42:03;101733.28;;;23.21;52.94
65557;BME280;52200;53.490;14.376;2023-05-22T07:44:29;101728.38;;;23.43;49.84
65557;BME280;52200;53.490;14.376;2023-05-22T07:46:55;101730.66;;;23.48;52.77
65557;BME280;52200;53.490;14.376;2023-05-22T07:49:22;101732.50;;;23.46;51.20
65557;BME280;52200;53.490;14.376;2023-05-22T07:51:48;101725.88;;;23.55;51.04
65557;BME280;52200;53.490;14.376;2023-05-22T07:54:14;101724.03;;;23.70;51.45
65557;BME280;52200;53.490;14.376;2023-05-22T07:56:40;101734.06;;;24.02;50.44
65557;BME280;52200;53.490;14.376;2023-05-22T07:59:06;101719.50;;;23.86;52.52
65557;BME280;52200;53.490;14.376;2023-05-22T08:01:33;101725.00;;;24.20;50.34
65557;BME280;52200;53.490;14.376;2023-05-22T08:03:59;101732.50;;;23.99;51.00
65557;BME280;52200;53.490;14.376;2023-05-22T08:06:24;101716.19;;;24.10;51.05
65557;BME280;52200;53.490;14.376;2023-05-22T08:08:50;101723.16;;;23.96;50.65
65557;BME280;52200;53.490;14.376;2023-05-22T08:11:17;101725.50;;;23.87;50.94
65557;BME280;52200;53.490;14.376;2023-05-22T08:13:42;101720.53;;;24.09;49.60
65557;BME280;52200;53.490;14.376;2023-05-22T08:16:08;101722.72;;;24.15;49.57
65557;BME280;52200;53.490;14.376;2023-05-22T08:18:34;101721.38;;;24.23;49.38
65557;BME280;52200;53.490;14.376;2023-05-22T08:20:59;101719.03;;;24.44;48.82
65557;BME280;52200;53.490;14.376;2023-05-22T08:23:25;101717.66;;;24.64;50.08
65557;BME280;52200;53.490;14.376;2023-05-22T08:25:50;101714.91;;;24.78;49.50
65557;BME280;52200;53.490;14.376;2023-05-22T08:28:15;101714.66;;;24.57;47.19
65557;BME280;52200;53.490;14.376;2023-05-22T08:30:41;101723.53;;;24.29;48.83
65557;BME280;52200;53.490;14.376;2023-05-22T08:33:06;101710.97;;;24.23;47.27
65557;BME280;52200;53.490;14.376;2023-05-22T08:35:32;101711.97;;;24.46;47.39
65557;BME280;52200;53.490;14.376;2023-05-22T08:37:57;101718.91;;;24.58;48.53
65557;BME280;52200;53.490;14.376;2023-05-22T08:40:23;101710.06;;;24.74;45.88
65557;BME280;52200;53.490;14.376;2023-05-22T08:42:52;101712.13;;;24.69;47.14
65557;BME280;52200;53.490;14.376;2023-05-22T08:45:19;101704.47;;;24.67;48.05
65557;BME280;52200;53.490;14.376;2023-05-22T08:47:47;101705.53;;;24.52;46.39
65557;BME280;52200;53.490;14.376;2023-05-22T08:50:16;101712.66;;;24.61;47.52
65557;BME280;52200;53.490;14.376;2023-05-22T08:52:46;101699.97;;;24.93;47.76
65557;BME280;52200;53.490;14.376;2023-05-22T08:55:14;101698.75;;;25.10;45.06
65557;BME280;52200;53.490;14.376;2023-05-22T08:57:41;101690.47;;;24.81;44.33
65557;BME280;52200;53.490;14.376;2023-05-22T09:00:07;101689.97;;;24.76;45.02
65557;BME280;52200;53.490;14.376;2023-05-22T09:02:33;101694.63;;;24.84;47.74
65557;BME280;52200;53.490;14.376;2023-05-22T09:04:58;101690.28;;;25.20;50.03
65557;BME280;52200;53.490;14.376;2023-05-22T09:07:26;101683.28;;;25.45;47.46
65557;BME280;52200;53.490;14.376;2023-05-22T09:09:54;101685.44;;;25.62;45.51
65557;BME280;52200;53.490;14.376;2023-05-22T09:12:20;101680.22;;;25.51;45.26
65557;BME280;52200;53.490;14.376;2023-05-22T09:14:45;101678.31;;;25.53;42.69
65557;BME280;52200;53.490;14.376;2023-05-22T09:17:14;101673.38;;;25.61;43.43
65557;BME280;52200;53.490;14.376;2023-05-22T09:19:43;101678.72;;;25.00;41.65
65557;BME280;52200;53.490;14.376;2023-05-22T09:22:10;101677.53;;;24.68;42.26
65557;BME280;52200;53.490;14.376;2023-05-22T09:24:40;101668.50;;;25.09;41.73
65557;BME280;52200;53.490;14.376;2023-05-22T09:27:07;101672.09;;;25.20;42.08
65557;BME280;52200;53.490;14.376;2023-05-22T09:29:47;101665.50;;;25.27;44.08
65557;BME280;52200;53.490;14.376;2023-05-22T09:32:13;101668.16;;;25.38;42.53
65557;BME280;52200;53.490;14.376;2023-05-22T09:34:39;101662.19;;;25.36;41.73
65557;BME280;52200;53.490;14.376;2023-05-22T09:37:04;101654.69;;;25.20;40.00
65557;BME280;52200;53.490;14.376;2023-05-22T09:39:43;101649.28;;;25.23;39.91
65557;BME280;52200;53.490;14.376;2023-05-22T09:42:10;101651.00;;;25.11;40.83
65557;BME280;52200;53.490;14.376;2023-05-22T09:44:37;101654.91;;;25.53;40.84
65557;BME280;52200;53.490;14.376;2023-05-22T09:47:05;101645.22;;;25.66;41.35
65557;BME280;52200;53.490;14.376;2023-05-22T09:49:35;101644.28;;;25.67;39.98
65557;BME280;52200;53.490;14.376;2023-05-22T09:52:03;101644.75;;;25.50;41.63
65557;BME280;52200;53.490;14.376;2023-05-22T09:54:31;101634.94;;;25.53;41.36
65557;BME280;52200;53.490;14.376;2023-05-22T09:56:58;101637.41;;;25.66;40.84
65557;BME280;52200;53.490;14.376;2023-05-22T09:59:27;101641.66;;;25.45;39.74
65557;BME280;52200;53.490;14.376;2023-05-22T10:01:54;101634.63;;;25.34;40.84
65557;BME280;52200;53.490;14.376;2023-05-22T10:04:21;101641.56;;;25.22;40.75
65557;BME280;52200;53.490;14.376;2023-05-22T10:06:50;101628.03;;;24.94;39.12
65557;BME280;52200;53.490;14.376;2023-05-22T10:09:17;101625.09;;;24.99;40.96
65557;BME280;52200;53.490;14.376;2023-05-22T10:11:46;101634.28;;;24.91;41.51
65557;BME280;52200;53.490;14.376;2023-05-22T10:14:13;101620.13;;;25.07;41.01
65557;BME280;52200;53.490;14.376;2023-05-22T10:16:40;101623.59;;;25.07;39.87
65557;BME280;52200;53.490;14.376;2023-05-22T10:19:07;101615.72;;;24.96;40.06
65557;BME280;52200;53.490;14.376;2023-05-22T10:21:34;101613.09;;;25.20;39.93
65557;BME280;52200;53.490;14.376;2023-05-22T10:24:01;101603.56;;;25.43;40.64
65557;BME280;52200;53.490;14.376;2023-05-22T10:26:28;101612.78;;;25.59;41.25
65557;BME280;52200;53.490;14.376;2023-05-22T10:29:01;101612.91;;;25.69;41.03
65557;BME280;52200;53.490;14.376;2023-05-22T10:31:45;101603.44;;;25.45;39.46
65557;BME280;52200;53.490;14.376;2023-05-22T10:34:29;101600.75;;;25.58;38.93
65557;BME280;52200;53.490;14.376;2023-05-22T10:37:14;101603.94;;;26.07;39.54
65557;BME280;52200;53.490;14.376;2023-05-22T10:39:59;101590.34;;;26.36;40.36
65557;BME280;52200;53.490;14.376;2023-05-22T10:42:29;101596.09;;;25.96;40.57
65557;BME280;52200;53.490;14.376;2023-05-22T10:44:54;101594.81;;;25.90;40.41
65557;BME280;52200;53.490;14.376;2023-05-22T10:47:20;101586.09;;;25.57;40.22
65557;BME280;52200;53.490;14.376;2023-05-22T10:49:45;101586.09;;;25.46;40.69
65557;BME280;52200;53.490;14.376;2023-05-22T10:52:11;101582.53;;;25.69;41.73
65557;BME280;52200;53.490;14.376;2023-05-22T10:54:44;101579.75;;;25.94;41.54
65557;BME280;52200;53.490;14.376;2023-05-22T10:57:14;101579.53;;;25.97;40.83
65557;BME280;52200;53.490;14.376;2023-05-22T10:59:41;101576.19;;;26.17;42.19
65557;BME280;52200;53.490;14.376;2023-05-22T11:02:23;101570.91;;;26.08;40.49
65557;BME280;52200;53.490;14.376;2023-05-22T11:04:53;101583.47;;;25.80;39.98
65557;BME280;52200;53.490;14.376;2023-05-22T11:07:18;101568.28;;;25.96;40.16
65557;BME280;52200;53.490;14.376;2023-05-22T11:09:45;101563.31;;;25.93;41.51
65557;BME280;52200;53.490;14.376;2023-05-22T11:12:19;101573.19;;;25.67;42.00
65557;BME280;52200;53.490;14.376;2023-05-22T11:15:04;101575.41;;;25.71;40.71
65557;BME280;52200;53.490;14.376;2023-05-22T11:17:39;101572.72;;;25.73;39.69
65557;BME280;52200;53.490;14.376;2023-05-22T11:20:23;101554.31;;;26.09;38.19
65557;BME280;52200;53.490;14.376;2023-05-22T11:22:55;101562.31;;;26.28;38.66
65557;BME280;52200;53.490;14.376;2023-05-22T11:25:23;101554.91;;;26.12;38.97
65557;BME280;52200;53.490;14.376;2023-05-22T11:27:49;101562.00;;;26.21;41.15
65557;BME280;52200;53.490;14.376;2023-05-22T11:30:15;101560.06;;;26.23;39.25
65557;BME280;52200;53.490;14.376;2023-05-22T11:32:43;101562.59;;;25.91;40.38
65557;BME280;52200;53.490;14.376;2023-05-22T11:35:17;101548.41;;;26.06;41.06
65557;BME280;52200;53.490;14.376;2023-05-22T11:37:43;101552.91;;;26.37;41.13
65557;BME280;52200;53.490;14.376;2023-05-22T11:40:09;101555.88;;;26.44;40.01
65557;BME280;52200;53.490;14.376;2023-05-22T11:42:36;101536.09;;;26.41;40.30
65557;BME280;52200;53.490;14.376;2023-05-22T11:45:02;101543.38;;;26.26;39.38
65557;BME280;52200;53.490;14.376;2023-05-22T11:47:29;101542.53;;;26.26;39.26
65557;BME280;52200;53.490;14.376;2023-05-22T11:49:58;101547.91;;;26.45;39.29
65557;BME280;52200;53.490;14.376;2023-05-22T11:52:34;101541.97;;;26.22;38.35
65557;BME280;52200;53.490;14.376;2023-05-22T11:55:00;101537.19;;;26.38;38.40
65557;BME280;52200;53.490;14.376;2023-05-22T11:57:26;101540.63;;;26.60;39.61
65557;BME280;52200;53.490;14.376;2023-05-22T11:59:52;101530.13;;;26.50;39.02
65557;BME280;52200;53.490;14.376;2023-05-22T12:02:18;101530.63;;;26.65;39.93
65557;BME280;52200;53.490;14.376;2023-05-22T12:04:44;101533.94;;;26.46;37.62
65557;BME280;52200;53.490;14.376;2023-05-22T12:07:10;101521.75;;;26.03;37.97
65557;BME280;52200;53.490;14.376;2023-05-22T12:09:41;101524.69;;;26.21;37.30
65557;BME280;52200;53.490;14.376;2023-05-22T12:12:09;101522.69;;;26.46;38.38
65557;BME280;52200;53.490;14.376;2023-05-22T12:14:43;101530.50;;;26.46;39.04
65557;BME280;52200;53.490;14.376;2023-05-22T12:17:14;101523.78;;;25.99;38.17
65557;BME280;52200;53.490;14.376;2023-05-22T12:19:41;101520.66;;;25.73;38.38
65557;BME280;52200;53.490;14.376;2023-05-22T12:22:10;101513.41;;;25.65;39.50
65557;BME280;52200;53.490;14.376;2023-05-22T12:24:45;101516.41;;;26.16;38.44
65557;BME280;52200;53.490;14.376;2023-05-22T12:27:11;101508.09;;;26.54;37.74
65557;BME280;52200;53.490;14.376;2023-05-22T12:29:41;101503.50;;;26.89;39.65
65557;BME280;52200;53.490;14.376;2023-05-22T12:32:10;101498.97;;;26.70;37.47
65557;BME280;52200;53.490;14.376;2023-05-22T12:34:46;101497.09;;;26.51;38.49
65557;BME280;52200;53.490;14.376;2023-05-22T12:37:20;101497.63;;;26.33;37.57
65557;BME280;52200;53.490;14.376;2023-05-22T12:39:57;101492.88;;;25.95;38.07
65557;BME280;52200;53.490;14.376;2023-05-22T12:42:27;101494.94;;;25.80;39.03
65557;BME280;52200;53.490;14.376;2023-05-22T12:44:54;101489.75;;;25.80;39.63
65557;BME280;52200;53.490;14.376;2023-05-22T12:47:22;101486.88;;;25.94;37.78
65557;BME280;52200;53.490;14.376;2023-05-22T12:49:48;101488.59;;;25.61;37.74
65557;BME280;52200;53.490;14.376;2023-05-22T12:52:13;101484.53;;;25.80;36.71
65557;BME280;52200;53.490;14.376;2023-05-22T12:54:39;101490.50;;;25.70;37.87